sensor_id;sensor_type;location;lat;lon;timestamp;P1;durP1;ratioP1;P2;durP2;ratioP2
66487;SDS011;53304;54.550;18.526;2022-12-07T00:03:49;9.48;;;5.50;;
66487;SDS011;53304;54.550;18.526;2022-12-07T00:06:17;9.82;;;5.75;;
66487;SDS011;53304;54.550;18.526;2022-12-07T00:08:43;9.05;;;5.15;;
66487;SDS011;53304;54.550;18.526;2022-12-07T00:11:10;9.40;;;5.72;;
66487;SDS011;53304;54.550;18.526;2022-12-07T00:13:39;10.48;;;5.72;;
66487;SDS011;53304;54.550;18.526;2022-12-07T00:16:08;10.40;;;5.72;;
66487;SDS011;53304;54.550;18.526;2022-12-07T00:18:36;9.98;;;5.80;;
66487;SDS011;53304;54.550;18.526;2022-12-07T00:21:05;9.55;;;5.55;;
66487;SDS011;53304;54.550;18.526;2022-12-07T00:23:31;9.45;;;5.93;;
66487;SDS011;53304;54.550;18.526;2022-12-07T00:26:02;8.35;;;5.45;;
66487;SDS011;53304;54.550;18.526;2022-12-07T00:28:31;9.30;;;5.30;;
66487;SDS011;53304;54.550;18.526;2022-12-07T00:31:04;10.05;;;5.40;;
66487;SDS011;53304;54.550;18.526;2022-12-07T00:33:35;9.50;;;5.47;;
66487;SDS011;53304;54.550;18.526;2022-12-07T00:36:02;8.98;;;5.75;;
66487;SDS011;53304;54.550;18.526;2022-12-07T00:38:32;9.18;;;5.40;;
66487;SDS011;53304;54.550;18.526;2022-12-07T00:41:01;10.10;;;5.40;;
66487;SDS011;53304;54.550;18.526;2022-12-07T00:43:32;9.32;;;5.18;;
66487;SDS011;53304;54.550;18.526;2022-12-07T00:45:58;8.20;;;5.35;;
66487;SDS011;53304;54.550;18.526;2022-12-07T00:48:24;8.65;;;5.00;;
66487;SDS011;53304;54.550;18.526;2022-12-07T00:50:52;8.18;;;4.80;;
66487;SDS011;53304;54.550;18.526;2022-12-07T00:53:20;7.97;;;5.03;;
66487;SDS011;53304;54.550;18.526;2022-12-07T00:55:46;9.27;;;4.90;;
66487;SDS011;53304;54.550;18.526;2022-12-07T00:58:11;7.55;;;4.95;;
66487;SDS011;53304;54.550;18.526;2022-12-07T01:00:40;8.50;;;5.10;;
66487;SDS011;53304;54.550;18.526;2022-12-07T01:03:06;8.95;;;5.03;;
66487;SDS011;53304;54.550;18.526;2022-12-07T01:05:35;9.80;;;5.18;;
66487;SDS011;53304;54.550;18.526;2022-12-07T01:08:01;10.93;;;5.20;;
66487;SDS011;53304;54.550;18.526;2022-12-07T01:10:29;7.63;;;4.43;;
66487;SDS011;53304;54.550;18.526;2022-12-07T01:12:57;11.05;;;4.88;;
66487;SDS011;53304;54.550;18.526;2022-12-07T01:15:22;9.32;;;4.97;;
66487;SDS011;53304;54.550;18.526;2022-12-07T01:17:48;6.82;;;4.60;;
66487;SDS011;53304;54.550;18.526;2022-12-07T01:20:18;8.50;;;4.75;;
66487;SDS011;53304;54.550;18.526;2022-12-07T01:22:43;7.07;;;4.38;;
66487;SDS011;53304;54.550;18.526;2022-12-07T01:25:10;8.48;;;4.60;;
66487;SDS011;53304;54.550;18.526;2022-12-07T01:27:36;8.75;;;4.70;;
66487;SDS011;53304;54.550;18.526;2022-12-07T01:30:04;8.50;;;4.82;;
66487;SDS011;53304;54.550;18.526;2022-12-07T01:32:33;8.88;;;4.82;;
66487;SDS011;53304;54.550;18.526;2022-12-07T01:35:01;8.02;;;4.88;;
66487;SDS011;53304;54.550;18.526;2022-12-07T01:37:26;7.00;;;4.38;;
66487;SDS011;53304;54.550;18.526;2022-12-07T01:39:52;7.00;;;4.15;;
66487;SDS011;53304;54.550;18.526;2022-12-07T01:42:17;8.13;;;4.25;;
66487;SDS011;53304;54.550;18.526;2022-12-07T01:48:04;7.68;;;4.20;;
66487;SDS011;53304;54.550;18.526;2022-12-07T01:50:28;6.95;;;4.15;;
66487;SDS011;53304;54.550;18.526;2022-12-07T01:52:56;8.30;;;4.07;;
66487;SDS011;53304;54.550;18.526;2022-12-07T01:55:23;8.15;;;4.35;;
66487;SDS011;53304;54.550;18.526;2022-12-07T01:57:49;7.63;;;4.30;;
66487;SDS011;53304;54.550;18.526;2022-12-07T02:00:16;8.57;;;4.43;;
66487;SDS011;53304;54.550;18.526;2022-12-07T02:02:48;7.60;;;4.10;;
66487;SDS011;53304;54.550;18.526;2022-12-07T02:05:16;7.50;;;4.00;;
66487;SDS011;53304;54.550;18.526;2022-12-07T02:07:45;7.18;;;4.10;;
66487;SDS011;53304;54.550;18.526;2022-12-07T02:10:15;6.50;;;3.90;;
66487;SDS011;53304;54.550;18.526;2022-12-07T02:12:42;7.07;;;4.25;;
66487;SDS011;53304;54.550;18.526;2022-12-07T02:15:09;6.32;;;3.67;;
66487;SDS011;53304;54.550;18.526;2022-12-07T02:20:29;6.07;;;3.90;;
66487;SDS011;53304;54.550;18.526;2022-12-07T02:25:58;7.22;;;3.80;;
66487;SDS011;53304;54.550;18.526;2022-12-07T02:28:37;7.13;;;4.00;;
66487;SDS011;53304;54.550;18.526;2022-12-07T02:31:12;7.03;;;4.10;;
66487;SDS011;53304;54.550;18.526;2022-12-07T02:33:43;6.40;;;3.58;;
66487;SDS011;53304;54.550;18.526;2022-12-07T02:36:20;6.28;;;3.90;;
66487;SDS011;53304;54.550;18.526;2022-12-07T02:39:06;7.18;;;3.78;;
66487;SDS011;53304;54.550;18.526;2022-12-07T02:41:42;6.55;;;3.83;;
66487;SDS011;53304;54.550;18.526;2022-12-07T02:44:13;6.72;;;3.85;;
66487;SDS011;53304;54.550;18.526;2022-12-07T02:46:43;7.35;;;4.03;;
66487;SDS011;53304;54.550;18.526;2022-12-07T02:49:11;6.85;;;3.83;;
66487;SDS011;53304;54.550;18.526;2022-12-07T02:51:43;6.00;;;3.40;;
66487;SDS011;53304;54.550;18.526;2022-12-07T02:54:11;5.55;;;3.63;;
66487;SDS011;53304;54.550;18.526;2022-12-07T03:10:07;6.32;;;3.53;;
66487;SDS011;53304;54.550;18.526;2022-12-07T03:15:22;5.80;;;3.38;;
66487;SDS011;53304;54.550;18.526;2022-12-07T03:17:54;6.88;;;3.42;;
66487;SDS011;53304;54.550;18.526;2022-12-07T03:20:23;6.45;;;3.47;;
66487;SDS011;53304;54.550;18.526;2022-12-07T03:22:50;5.95;;;3.47;;
66487;SDS011;53304;54.550;18.526;2022-12-07T03:25:21;6.53;;;3.90;;
66487;SDS011;53304;54.550;18.526;2022-12-07T03:28:05;6.55;;;3.42;;
66487;SDS011;53304;54.550;18.526;2022-12-07T03:30:44;5.93;;;3.38;;
66487;SDS011;53304;54.550;18.526;2022-12-07T03:33:36;6.53;;;3.55;;
66487;SDS011;53304;54.550;18.526;2022-12-07T03:36:04;5.95;;;3.25;;
66487;SDS011;53304;54.550;18.526;2022-12-07T03:38:36;5.82;;;3.45;;
66487;SDS011;53304;54.550;18.526;2022-12-07T03:41:28;6.07;;;3.50;;
66487;SDS011;53304;54.550;18.526;2022-12-07T03:43:56;6.43;;;3.05;;
66487;SDS011;53304;54.550;18.526;2022-12-07T03:52:37;5.60;;;2.95;;
66487;SDS011;53304;54.550;18.526;2022-12-07T03:54:42;5.20;;;3.08;;
66487;SDS011;53304;54.550;18.526;2022-12-07T03:57:11;5.63;;;3.15;;
66487;SDS011;53304;54.550;18.526;2022-12-07T03:59:39;6.80;;;3.38;;
66487;SDS011;53304;54.550;18.526;2022-12-07T04:02:11;6.22;;;3.20;;
66487;SDS011;53304;54.550;18.526;2022-12-07T04:04:37;4.82;;;3.05;;
66487;SDS011;53304;54.550;18.526;2022-12-07T04:07:05;5.22;;;3.10;;
66487;SDS011;53304;54.550;18.526;2022-12-07T04:09:32;5.65;;;2.95;;
66487;SDS011;53304;54.550;18.526;2022-12-07T04:12:02;5.35;;;2.92;;
66487;SDS011;53304;54.550;18.526;2022-12-07T04:14:30;6.25;;;3.22;;
66487;SDS011;53304;54.550;18.526;2022-12-07T04:16:56;5.22;;;2.97;;
66487;SDS011;53304;54.550;18.526;2022-12-07T04:19:28;5.28;;;3.10;;
66487;SDS011;53304;54.550;18.526;2022-12-07T04:21:58;5.95;;;2.90;;
66487;SDS011;53304;54.550;18.526;2022-12-07T04:24:26;4.90;;;2.67;;
66487;SDS011;53304;54.550;18.526;2022-12-07T04:26:54;5.25;;;2.97;;
66487;SDS011;53304;54.550;18.526;2022-12-07T04:29:20;5.72;;;2.90;;
66487;SDS011;53304;54.550;18.526;2022-12-07T04:31:48;4.57;;;2.60;;
66487;SDS011;53304;54.550;18.526;2022-12-07T04:34:17;5.28;;;2.85;;
66487;SDS011;53304;54.550;18.526;2022-12-07T04:36:45;5.97;;;3.33;;
66487;SDS011;53304;54.550;18.526;2022-12-07T04:39:25;4.88;;;2.80;;
66487;SDS011;53304;54.550;18.526;2022-12-07T04:42:01;5.82;;;2.80;;
66487;SDS011;53304;54.550;18.526;2022-12-07T04:44:28;5.90;;;2.83;;
66487;SDS011;53304;54.550;18.526;2022-12-07T04:46:54;5.40;;;2.90;;
66487;SDS011;53304;54.550;18.526;2022-12-07T04:49:20;5.93;;;2.72;;
66487;SDS011;53304;54.550;18.526;2022-12-07T04:51:47;4.97;;;2.53;;
66487;SDS011;53304;54.550;18.526;2022-12-07T04:54:18;4.30;;;2.63;;
66487;SDS011;53304;54.550;18.526;2022-12-07T04:56:43;6.72;;;2.83;;
66487;SDS011;53304;54.550;18.526;2022-12-07T04:59:12;6.15;;;2.80;;
66487;SDS011;53304;54.550;18.526;2022-12-07T05:01:40;5.05;;;2.90;;
66487;SDS011;53304;54.550;18.526;2022-12-07T05:04:08;5.10;;;2.83;;
66487;SDS011;53304;54.550;18.526;2022-12-07T05:06:34;9.98;;;2.90;;
66487;SDS011;53304;54.550;18.526;2022-12-07T05:09:02;5.28;;;2.55;;
66487;SDS011;53304;54.550;18.526;2022-12-07T05:11:32;6.15;;;2.85;;
66487;SDS011;53304;54.550;18.526;2022-12-07T05:14:06;4.63;;;2.60;;
66487;SDS011;53304;54.550;18.526;2022-12-07T05:16:36;5.10;;;2.50;;
66487;SDS011;53304;54.550;18.526;2022-12-07T05:19:04;4.57;;;2.45;;
66487;SDS011;53304;54.550;18.526;2022-12-07T05:21:35;5.03;;;2.53;;
66487;SDS011;53304;54.550;18.526;2022-12-07T05:24:01;8.00;;;2.78;;
66487;SDS011;53304;54.550;18.526;2022-12-07T05:26:29;5.63;;;2.70;;
66487;SDS011;53304;54.550;18.526;2022-12-07T05:28:57;4.60;;;2.47;;
66487;SDS011;53304;54.550;18.526;2022-12-07T05:31:23;4.20;;;2.22;;
66487;SDS011;53304;54.550;18.526;2022-12-07T05:33:49;5.50;;;2.58;;
66487;SDS011;53304;54.550;18.526;2022-12-07T05:36:17;5.47;;;2.67;;
66487;SDS011;53304;54.550;18.526;2022-12-07T05:38:45;5.00;;;2.60;;
66487;SDS011;53304;54.550;18.526;2022-12-07T05:41:15;5.47;;;2.58;;
66487;SDS011;53304;54.550;18.526;2022-12-07T05:44:00;5.40;;;2.53;;
66487;SDS011;53304;54.550;18.526;2022-12-07T05:46:25;4.78;;;2.40;;
66487;SDS011;53304;54.550;18.526;2022-12-07T05:48:51;4.93;;;2.25;;
66487;SDS011;53304;54.550;18.526;2022-12-07T05:51:16;4.40;;;2.10;;
66487;SDS011;53304;54.550;18.526;2022-12-07T05:53:44;4.40;;;2.30;;
66487;SDS011;53304;54.550;18.526;2022-12-07T05:56:14;4.63;;;2.17;;
66487;SDS011;53304;54.550;18.526;2022-12-07T05:58:40;4.20;;;2.30;;
66487;SDS011;53304;54.550;18.526;2022-12-07T06:01:24;4.18;;;2.17;;
66487;SDS011;53304;54.550;18.526;2022-12-07T06:03:49;4.35;;;2.50;;
66487;SDS011;53304;54.550;18.526;2022-12-07T06:06:15;4.22;;;2.40;;
66487;SDS011;53304;54.550;18.526;2022-12-07T06:08:42;4.13;;;2.15;;
66487;SDS011;53304;54.550;18.526;2022-12-07T06:11:12;4.20;;;2.10;;
66487;SDS011;53304;54.550;18.526;2022-12-07T06:13:56;5.82;;;2.05;;
66487;SDS011;53304;54.550;18.526;2022-12-07T06:16:22;4.95;;;2.00;;
66487;SDS011;53304;54.550;18.526;2022-12-07T06:18:47;3.45;;;2.05;;
66487;SDS011;53304;54.550;18.526;2022-12-07T06:21:15;4.47;;;2.22;;
66487;SDS011;53304;54.550;18.526;2022-12-07T06:23:40;4.00;;;1.92;;
66487;SDS011;53304;54.550;18.526;2022-12-07T06:26:05;7.25;;;2.47;;
66487;SDS011;53304;54.550;18.526;2022-12-07T06:28:33;3.90;;;1.85;;
66487;SDS011;53304;54.550;18.526;2022-12-07T06:30:59;8.85;;;2.10;;
66487;SDS011;53304;54.550;18.526;2022-12-07T06:33:25;6.07;;;2.40;;
66487;SDS011;53304;54.550;18.526;2022-12-07T06:35:54;4.78;;;2.13;;
66487;SDS011;53304;54.550;18.526;2022-12-07T06:38:20;7.95;;;2.28;;
66487;SDS011;53304;54.550;18.526;2022-12-07T06:40:48;5.45;;;2.30;;
66487;SDS011;53304;54.550;18.526;2022-12-07T06:43:13;9.63;;;2.70;;
66487;SDS011;53304;54.550;18.526;2022-12-07T06:45:42;10.60;;;2.50;;
66487;SDS011;53304;54.550;18.526;2022-12-07T06:48:07;5.82;;;2.38;;
66487;SDS011;53304;54.550;18.526;2022-12-07T06:50:33;10.52;;;2.78;;
66487;SDS011;53304;54.550;18.526;2022-12-07T06:53:01;7.18;;;1.90;;
66487;SDS011;53304;54.550;18.526;2022-12-07T06:55:28;9.00;;;2.35;;
66487;SDS011;53304;54.550;18.526;2022-12-07T06:57:58;8.52;;;2.30;;
66487;SDS011;53304;54.550;18.526;2022-12-07T07:00:24;9.52;;;2.25;;
66487;SDS011;53304;54.550;18.526;2022-12-07T07:02:52;8.88;;;2.10;;
66487;SDS011;53304;54.550;18.526;2022-12-07T07:05:17;7.82;;;1.75;;
66487;SDS011;53304;54.550;18.526;2022-12-07T07:07:50;8.93;;;1.83;;
66487;SDS011;53304;54.550;18.526;2022-12-07T07:10:16;6.28;;;2.00;;
66487;SDS011;53304;54.550;18.526;2022-12-07T07:12:41;7.18;;;2.15;;
66487;SDS011;53304;54.550;18.526;2022-12-07T07:15:09;6.25;;;2.00;;
66487;SDS011;53304;54.550;18.526;2022-12-07T07:17:37;6.45;;;1.90;;
66487;SDS011;53304;54.550;18.526;2022-12-07T07:20:03;6.13;;;1.90;;
66487;SDS011;53304;54.550;18.526;2022-12-07T07:22:29;5.18;;;1.90;;
66487;SDS011;53304;54.550;18.526;2022-12-07T07:24:56;5.95;;;2.25;;
66487;SDS011;53304;54.550;18.526;2022-12-07T07:27:27;5.10;;;2.10;;
66487;SDS011;53304;54.550;18.526;2022-12-07T07:29:54;5.35;;;1.88;;
66487;SDS011;53304;54.550;18.526;2022-12-07T07:32:20;5.82;;;1.85;;
66487;SDS011;53304;54.550;18.526;2022-12-07T07:34:46;6.20;;;1.98;;
66487;SDS011;53304;54.550;18.526;2022-12-07T07:37:15;6.93;;;1.80;;
66487;SDS011;53304;54.550;18.526;2022-12-07T07:39:42;6.05;;;1.90;;
66487;SDS011;53304;54.550;18.526;2022-12-07T07:42:08;5.88;;;1.90;;
66487;SDS011;53304;54.550;18.526;2022-12-07T07:44:34;5.47;;;1.70;;
66487;SDS011;53304;54.550;18.526;2022-12-07T07:47:02;7.32;;;2.38;;
66487;SDS011;53304;54.550;18.526;2022-12-07T07:49:27;6.15;;;1.88;;
66487;SDS011;53304;54.550;18.526;2022-12-07T07:51:57;5.78;;;1.85;;
66487;SDS011;53304;54.550;18.526;2022-12-07T07:54:23;5.50;;;1.70;;
66487;SDS011;53304;54.550;18.526;2022-12-07T07:56:48;4.90;;;1.92;;
66487;SDS011;53304;54.550;18.526;2022-12-07T07:59:16;4.53;;;1.67;;
66487;SDS011;53304;54.550;18.526;2022-12-07T08:01:44;3.67;;;1.73;;
66487;SDS011;53304;54.550;18.526;2022-12-07T08:04:11;5.75;;;1.70;;
66487;SDS011;53304;54.550;18.526;2022-12-07T08:06:39;5.32;;;1.63;;
66487;SDS011;53304;54.550;18.526;2022-12-07T08:09:07;3.72;;;1.75;;
66487;SDS011;53304;54.550;18.526;2022-12-07T08:11:35;5.30;;;1.90;;
66487;SDS011;53304;54.550;18.526;2022-12-07T08:14:03;5.90;;;1.83;;
66487;SDS011;53304;54.550;18.526;2022-12-07T08:16:28;4.80;;;1.90;;
66487;SDS011;53304;54.550;18.526;2022-12-07T08:18:56;5.15;;;1.70;;
66487;SDS011;53304;54.550;18.526;2022-12-07T08:21:22;5.43;;;2.00;;
66487;SDS011;53304;54.550;18.526;2022-12-07T08:23:50;3.85;;;1.85;;
66487;SDS011;53304;54.550;18.526;2022-12-07T08:26:20;4.20;;;1.63;;
66487;SDS011;53304;54.550;18.526;2022-12-07T08:28:45;4.22;;;1.55;;
66487;SDS011;53304;54.550;18.526;2022-12-07T08:31:14;5.70;;;2.03;;
66487;SDS011;53304;54.550;18.526;2022-12-07T08:33:41;5.75;;;1.73;;
66487;SDS011;53304;54.550;18.526;2022-12-07T08:36:07;4.40;;;1.83;;
66487;SDS011;53304;54.550;18.526;2022-12-07T08:38:37;4.10;;;1.70;;
66487;SDS011;53304;54.550;18.526;2022-12-07T08:41:06;4.13;;;1.77;;
66487;SDS011;53304;54.550;18.526;2022-12-07T08:43:35;3.38;;;1.63;;
66487;SDS011;53304;54.550;18.526;2022-12-07T08:48:53;5.15;;;1.73;;
66487;SDS011;53304;54.550;18.526;2022-12-07T08:51:21;4.93;;;1.70;;
66487;SDS011;53304;54.550;18.526;2022-12-07T08:53:48;5.13;;;1.92;;
66487;SDS011;53304;54.550;18.526;2022-12-07T08:56:17;2.92;;;1.60;;
66487;SDS011;53304;54.550;18.526;2022-12-07T08:58:45;4.13;;;2.03;;
66487;SDS011;53304;54.550;18.526;2022-12-07T09:01:10;5.30;;;1.80;;
66487;SDS011;53304;54.550;18.526;2022-12-07T09:03:36;4.03;;;1.70;;
66487;SDS011;53304;54.550;18.526;2022-12-07T09:06:03;3.33;;;1.67;;
66487;SDS011;53304;54.550;18.526;2022-12-07T09:08:33;4.03;;;1.60;;
66487;SDS011;53304;54.550;18.526;2022-12-07T09:11:00;4.13;;;1.60;;
66487;SDS011;53304;54.550;18.526;2022-12-07T09:13:28;3.30;;;1.45;;
66487;SDS011;53304;54.550;18.526;2022-12-07T09:15:56;3.72;;;1.70;;
66487;SDS011;53304;54.550;18.526;2022-12-07T09:18:22;3.40;;;1.52;;
66487;SDS011;53304;54.550;18.526;2022-12-07T09:20:47;3.10;;;1.70;;
66487;SDS011;53304;54.550;18.526;2022-12-07T09:23:12;3.42;;;1.73;;
66487;SDS011;53304;54.550;18.526;2022-12-07T09:25:40;4.35;;;1.60;;
66487;SDS011;53304;54.550;18.526;2022-12-07T09:28:08;3.90;;;1.60;;
66487;SDS011;53304;54.550;18.526;2022-12-07T09:30:34;4.18;;;1.70;;
66487;SDS011;53304;54.550;18.526;2022-12-07T09:32:59;2.95;;;1.50;;
66487;SDS011;53304;54.550;18.526;2022-12-07T09:35:25;8.02;;;1.58;;
66487;SDS011;53304;54.550;18.526;2022-12-07T09:37:51;3.92;;;1.55;;
66487;SDS011;53304;54.550;18.526;2022-12-07T09:40:17;4.10;;;1.50;;
66487;SDS011;53304;54.550;18.526;2022-12-07T09:42:47;2.10;;;1.30;;
66487;SDS011;53304;54.550;18.526;2022-12-07T09:45:14;3.35;;;1.67;;
66487;SDS011;53304;54.550;18.526;2022-12-07T09:47:45;3.90;;;1.45;;
66487;SDS011;53304;54.550;18.526;2022-12-07T09:50:13;7.95;;;2.05;;
66487;SDS011;53304;54.550;18.526;2022-12-07T09:52:44;10.57;;;1.95;;
66487;SDS011;53304;54.550;18.526;2022-12-07T09:55:29;5.80;;;1.77;;
66487;SDS011;53304;54.550;18.526;2022-12-07T09:57:55;11.40;;;2.40;;
66487;SDS011;53304;54.550;18.526;2022-12-07T10:00:22;4.72;;;1.77;;
66487;SDS011;53304;54.550;18.526;2022-12-07T10:05:23;7.60;;;2.20;;
66487;SDS011;53304;54.550;18.526;2022-12-07T10:07:52;5.53;;;1.63;;
66487;SDS011;53304;54.550;18.526;2022-12-07T10:10:25;6.13;;;1.88;;
66487;SDS011;53304;54.550;18.526;2022-12-07T10:13:02;4.95;;;1.70;;
66487;SDS011;53304;54.550;18.526;2022-12-07T10:20:44;18.98;;;3.40;;
66487;SDS011;53304;54.550;18.526;2022-12-07T10:23:16;20.40;;;3.38;;
66487;SDS011;53304;54.550;18.526;2022-12-07T10:25:42;16.38;;;3.63;;
66487;SDS011;53304;54.550;18.526;2022-12-07T10:30:34;15.07;;;3.05;;
66487;SDS011;53304;54.550;18.526;2022-12-07T10:35:59;13.73;;;4.20;;
66487;SDS011;53304;54.550;18.526;2022-12-07T10:38:26;10.73;;;2.50;;
66487;SDS011;53304;54.550;18.526;2022-12-07T10:41:04;14.45;;;2.80;;
66487;SDS011;53304;54.550;18.526;2022-12-07T10:43:34;13.15;;;2.42;;
66487;SDS011;53304;54.550;18.526;2022-12-07T10:46:08;5.90;;;2.30;;
66487;SDS011;53304;54.550;18.526;2022-12-07T10:48:54;7.78;;;2.08;;
66487;SDS011;53304;54.550;18.526;2022-12-07T10:51:46;21.20;;;3.65;;
66487;SDS011;53304;54.550;18.526;2022-12-07T10:54:29;11.88;;;2.55;;
66487;SDS011;53304;54.550;18.526;2022-12-07T10:59:28;6.82;;;2.00;;
66487;SDS011;53304;54.550;18.526;2022-12-07T11:02:51;5.82;;;2.20;;
66487;SDS011;53304;54.550;18.526;2022-12-07T11:08:01;6.43;;;1.90;;
66487;SDS011;53304;54.550;18.526;2022-12-07T11:13:56;7.28;;;2.42;;
66487;SDS011;53304;54.550;18.526;2022-12-07T11:16:56;8.02;;;2.25;;
66487;SDS011;53304;54.550;18.526;2022-12-07T11:22:09;9.20;;;1.90;;
66487;SDS011;53304;54.550;18.526;2022-12-07T11:32:59;6.15;;;2.03;;
66487;SDS011;53304;54.550;18.526;2022-12-07T11:35:52;6.22;;;1.90;;
66487;SDS011;53304;54.550;18.526;2022-12-07T11:38:33;6.05;;;2.05;;
66487;SDS011;53304;54.550;18.526;2022-12-07T11:41:06;11.98;;;2.00;;
66487;SDS011;53304;54.550;18.526;2022-12-07T11:43:40;10.07;;;2.38;;
66487;SDS011;53304;54.550;18.526;2022-12-07T11:46:30;6.47;;;2.20;;
66487;SDS011;53304;54.550;18.526;2022-12-07T11:52:01;11.15;;;2.05;;
66487;SDS011;53304;54.550;18.526;2022-12-07T11:54:29;4.47;;;2.00;;
66487;SDS011;53304;54.550;18.526;2022-12-07T11:56:59;3.78;;;2.13;;
66487;SDS011;53304;54.550;18.526;2022-12-07T11:59:39;4.57;;;1.90;;
66487;SDS011;53304;54.550;18.526;2022-12-07T12:02:11;3.92;;;2.00;;
66487;SDS011;53304;54.550;18.526;2022-12-07T12:07:10;5.47;;;1.98;;
66487;SDS011;53304;54.550;18.526;2022-12-07T12:15:38;5.65;;;2.38;;
66487;SDS011;53304;54.550;18.526;2022-12-07T12:20:19;5.03;;;1.90;;
66487;SDS011;53304;54.550;18.526;2022-12-07T12:22:49;5.10;;;1.80;;
66487;SDS011;53304;54.550;18.526;2022-12-07T12:25:23;4.80;;;1.80;;
66487;SDS011;53304;54.550;18.526;2022-12-07T12:27:54;4.53;;;1.58;;
66487;SDS011;53304;54.550;18.526;2022-12-07T12:30:34;3.72;;;1.67;;
66487;SDS011;53304;54.550;18.526;2022-12-07T12:33:14;2.55;;;1.40;;
66487;SDS011;53304;54.550;18.526;2022-12-07T12:35:44;3.78;;;1.50;;
66487;SDS011;53304;54.550;18.526;2022-12-07T12:38:27;4.18;;;1.58;;
66487;SDS011;53304;54.550;18.526;2022-12-07T12:40:56;3.88;;;1.40;;
66487;SDS011;53304;54.550;18.526;2022-12-07T12:51:43;4.47;;;1.67;;
66487;SDS011;53304;54.550;18.526;2022-12-07T12:54:14;7.68;;;1.70;;
66487;SDS011;53304;54.550;18.526;2022-12-07T12:56:52;4.93;;;1.70;;
66487;SDS011;53304;54.550;18.526;2022-12-07T12:59:29;7.15;;;2.05;;
66487;SDS011;53304;54.550;18.526;2022-12-07T13:15:44;4.90;;;1.50;;
66487;SDS011;53304;54.550;18.526;2022-12-07T13:28:40;3.15;;;1.48;;
66487;SDS011;53304;54.550;18.526;2022-12-07T13:33:47;6.45;;;1.50;;
66487;SDS011;53304;54.550;18.526;2022-12-07T13:36:36;2.33;;;1.50;;
66487;SDS011;53304;54.550;18.526;2022-12-07T13:39:20;8.82;;;1.58;;
66487;SDS011;53304;54.550;18.526;2022-12-07T13:41:52;4.35;;;1.55;;
66487;SDS011;53304;54.550;18.526;2022-12-07T13:44:20;3.03;;;1.50;;
66487;SDS011;53304;54.550;18.526;2022-12-07T13:47:06;3.40;;;1.48;;
66487;SDS011;53304;54.550;18.526;2022-12-07T13:49:48;5.13;;;1.55;;
66487;SDS011;53304;54.550;18.526;2022-12-07T13:52:16;2.08;;;1.23;;
66487;SDS011;53304;54.550;18.526;2022-12-07T13:54:54;20.48;;;2.63;;
66487;SDS011;53304;54.550;18.526;2022-12-07T13:57:24;14.90;;;2.50;;
66487;SDS011;53304;54.550;18.526;2022-12-07T13:59:54;12.43;;;2.53;;
66487;SDS011;53304;54.550;18.526;2022-12-07T14:05:05;10.43;;;2.72;;
66487;SDS011;53304;54.550;18.526;2022-12-07T14:10:24;8.82;;;2.15;;
66487;SDS011;53304;54.550;18.526;2022-12-07T14:12:55;9.32;;;2.22;;
66487;SDS011;53304;54.550;18.526;2022-12-07T14:15:27;8.10;;;2.08;;
66487;SDS011;53304;54.550;18.526;2022-12-07T14:17:54;6.75;;;1.80;;
66487;SDS011;53304;54.550;18.526;2022-12-07T14:23:02;5.18;;;1.90;;
66487;SDS011;53304;54.550;18.526;2022-12-07T14:25:44;5.40;;;1.88;;
66487;SDS011;53304;54.550;18.526;2022-12-07T14:28:25;4.03;;;1.88;;
66487;SDS011;53304;54.550;18.526;2022-12-07T14:31:00;4.65;;;1.70;;
66487;SDS011;53304;54.550;18.526;2022-12-07T14:33:28;6.35;;;1.80;;
66487;SDS011;53304;54.550;18.526;2022-12-07T14:35:56;5.32;;;1.67;;
66487;SDS011;53304;54.550;18.526;2022-12-07T14:38:23;6.05;;;1.85;;
66487;SDS011;53304;54.550;18.526;2022-12-07T14:40:53;4.38;;;1.42;;
66487;SDS011;53304;54.550;18.526;2022-12-07T14:43:40;3.83;;;1.40;;
66487;SDS011;53304;54.550;18.526;2022-12-07T14:46:05;3.05;;;1.50;;
66487;SDS011;53304;54.550;18.526;2022-12-07T14:48:30;4.72;;;1.50;;
66487;SDS011;53304;54.550;18.526;2022-12-07T14:50:56;3.33;;;1.60;;
66487;SDS011;53304;54.550;18.526;2022-12-07T14:53:22;3.22;;;1.45;;
66487;SDS011;53304;54.550;18.526;2022-12-07T14:55:53;4.05;;;1.67;;
66487;SDS011;53304;54.550;18.526;2022-12-07T14:58:23;3.22;;;1.40;;
66487;SDS011;53304;54.550;18.526;2022-12-07T15:00:48;2.75;;;1.50;;
66487;SDS011;53304;54.550;18.526;2022-12-07T15:03:14;3.47;;;1.35;;
66487;SDS011;53304;54.550;18.526;2022-12-07T15:05:42;5.15;;;1.45;;
66487;SDS011;53304;54.550;18.526;2022-12-07T15:08:12;7.80;;;1.70;;
66487;SDS011;53304;54.550;18.526;2022-12-07T15:10:37;3.60;;;1.30;;
66487;SDS011;53304;54.550;18.526;2022-12-07T15:13:08;4.53;;;1.63;;
66487;SDS011;53304;54.550;18.526;2022-12-07T15:15:52;3.50;;;1.33;;
66487;SDS011;53304;54.550;18.526;2022-12-07T15:18:21;1.92;;;1.10;;
66487;SDS011;53304;54.550;18.526;2022-12-07T15:20:47;5.32;;;1.40;;
66487;SDS011;53304;54.550;18.526;2022-12-07T15:23:12;3.33;;;1.55;;
66487;SDS011;53304;54.550;18.526;2022-12-07T15:25:45;3.88;;;1.40;;
66487;SDS011;53304;54.550;18.526;2022-12-07T15:28:15;4.80;;;1.48;;
66487;SDS011;53304;54.550;18.526;2022-12-07T15:30:45;4.45;;;1.50;;
66487;SDS011;53304;54.550;18.526;2022-12-07T15:33:11;4.10;;;1.30;;
66487;SDS011;53304;54.550;18.526;2022-12-07T15:35:41;2.22;;;1.20;;
66487;SDS011;53304;54.550;18.526;2022-12-07T15:38:07;4.55;;;1.50;;
66487;SDS011;53304;54.550;18.526;2022-12-07T15:40:35;3.13;;;1.40;;
66487;SDS011;53304;54.550;18.526;2022-12-07T15:43:07;3.60;;;1.50;;
66487;SDS011;53304;54.550;18.526;2022-12-07T15:45:55;2.03;;;1.20;;
66487;SDS011;53304;54.550;18.526;2022-12-07T15:48:21;3.60;;;1.38;;
66487;SDS011;53304;54.550;18.526;2022-12-07T15:50:46;3.78;;;1.20;;
66487;SDS011;53304;54.550;18.526;2022-12-07T15:53:14;3.60;;;1.40;;
66487;SDS011;53304;54.550;18.526;2022-12-07T15:55:41;3.42;;;1.50;;
66487;SDS011;53304;54.550;18.526;2022-12-07T15:58:07;3.00;;;1.27;;
66487;SDS011;53304;54.550;18.526;2022-12-07T16:00:32;5.03;;;1.50;;
66487;SDS011;53304;54.550;18.526;2022-12-07T16:02:58;5.35;;;1.73;;
66487;SDS011;53304;54.550;18.526;2022-12-07T16:05:26;2.83;;;1.33;;
66487;SDS011;53304;54.550;18.526;2022-12-07T16:07:51;3.08;;;1.40;;
66487;SDS011;53304;54.550;18.526;2022-12-07T16:10:19;3.33;;;1.90;;
66487;SDS011;53304;54.550;18.526;2022-12-07T16:12:44;4.57;;;1.73;;
66487;SDS011;53304;54.550;18.526;2022-12-07T16:15:09;5.00;;;1.85;;
66487;SDS011;53304;54.550;18.526;2022-12-07T16:17:37;3.55;;;1.60;;
66487;SDS011;53304;54.550;18.526;2022-12-07T16:20:05;2.70;;;1.45;;
66487;SDS011;53304;54.550;18.526;2022-12-07T16:22:31;2.42;;;1.33;;
66487;SDS011;53304;54.550;18.526;2022-12-07T16:25:01;3.55;;;1.50;;
66487;SDS011;53304;54.550;18.526;2022-12-07T16:27:29;3.42;;;1.67;;
66487;SDS011;53304;54.550;18.526;2022-12-07T16:29:57;5.65;;;1.90;;
66487;SDS011;53304;54.550;18.526;2022-12-07T16:32:22;4.03;;;1.80;;
66487;SDS011;53304;54.550;18.526;2022-12-07T16:34:47;4.03;;;1.98;;
66487;SDS011;53304;54.550;18.526;2022-12-07T16:37:15;3.90;;;1.50;;
66487;SDS011;53304;54.550;18.526;2022-12-07T16:39:43;3.35;;;1.60;;
66487;SDS011;53304;54.550;18.526;2022-12-07T16:42:11;3.20;;;1.80;;
66487;SDS011;53304;54.550;18.526;2022-12-07T16:44:36;3.53;;;1.90;;
66487;SDS011;53304;54.550;18.526;2022-12-07T16:47:02;4.05;;;1.58;;
66487;SDS011;53304;54.550;18.526;2022-12-07T16:49:27;3.53;;;1.70;;
66487;SDS011;53304;54.550;18.526;2022-12-07T16:51:55;4.65;;;1.88;;
66487;SDS011;53304;54.550;18.526;2022-12-07T16:54:20;6.38;;;1.90;;